Time;durP1;ratioP1;P1;durP2;ratioP2;P2;SDS_P1;SDS_P2;PMS_P1;PMS_P2;Temp;Humidity;BMP_temperature;BMP_pressure;BME280_temperature;BME280_humidity;BME280_pressure;Samples;Min_cycle;Max_cycle;Signal;HPM_P1;HPM_P2
2022/12/07 00:01:11;;;;;;;1.58;0.90;;;20.00;38.10;;;;;;5045365;28;20094;-53
2022/12/07 00:03:38;;;;;;;1.65;1.00;;;20.00;38.10;;;;;;5045296;28;20476;-56
2022/12/07 00:06:06;;;;;;;1.52;0.90;;;20.00;38.10;;;;;;5049575;28;20029;-52
2022/12/07 00:08:33;;;;;;;2.25;0.80;;;20.00;38.00;;;;;;5054567;28;20021;-55
2022/12/07 00:11:07;;;;;;;1.10;0.85;;;20.00;38.00;;;;;;5030742;28;20057;-55
2022/12/07 00:13:35;;;;;;;1.55;0.70;;;20.00;38.00;;;;;;5029783;28;20045;-53
2022/12/07 00:16:02;;;;;;;2.53;1.00;;;20.00;38.00;;;;;;5004181;28;20034;-54
2022/12/07 00:18:28;;;;;;;1.77;1.02;;;20.00;37.90;;;;;;5010281;28;20030;-56
2022/12/07 00:21:19;;;;;;;2.28;0.80;;;20.00;37.90;;;;;;5015081;28;20441;-54
2022/12/07 00:23:47;;;;;;;1.15;0.80;;;20.00;37.90;;;;;;5014315;28;20045;-53
2022/12/07 00:26:18;;;;;;;1.85;1.00;;;20.00;37.90;;;;;;5014647;28;20509;-54
2022/12/07 00:28:55;;;;;;;0.90;0.75;;;20.00;37.80;;;;;;5014691;28;20116;-57
2022/12/07 00:31:24;;;;;;;1.77;1.00;;;20.00;37.80;;;;;;5016616;28;20450;-54
2022/12/07 00:33:50;;;;;;;1.60;0.82;;;20.00;37.80;;;;;;5017697;28;20029;-52
2022/12/07 00:36:19;;;;;;;1.52;0.80;;;20.00;37.80;;;;;;4999317;28;20030;-55
2022/12/07 00:38:45;;;;;;;2.00;0.82;;;19.90;37.70;;;;;;5009933;28;20057;-54
2022/12/07 00:41:16;;;;;;;1.83;1.02;;;20.00;37.80;;;;;;5012166;28;20037;-53
2022/12/07 00:43:43;;;;;;;2.00;0.90;;;19.90;37.90;;;;;;5016072;28;20546;-58
2022/12/07 00:46:10;;;;;;;1.98;1.00;;;19.90;37.90;;;;;;5011568;28;20034;-52
2022/12/07 00:48:36;;;;;;;2.15;1.15;;;20.00;37.90;;;;;;5006552;28;20030;-52
2022/12/07 00:51:03;;;;;;;1.52;0.95;;;19.90;37.80;;;;;;5012216;28;20026;-51
2022/12/07 00:53:29;;;;;;;1.35;0.75;;;19.90;37.80;;;;;;5011607;28;20022;-55
2022/12/07 00:55:56;;;;;;;1.65;1.10;;;19.90;37.80;;;;;;5011415;28;20041;-53
2022/12/07 00:58:22;;;;;;;1.30;0.93;;;19.90;37.70;;;;;;5010661;28;20084;-54
2022/12/07 01:00:48;;;;;;;1.58;0.88;;;19.90;37.70;;;;;;5002646;28;20019;-53
2022/12/07 01:03:15;;;;;;;1.08;0.85;;;19.90;37.70;;;;;;5012806;28;20037;-52
2022/12/07 01:05:53;;;;;;;2.85;1.13;;;19.90;37.70;;;;;;5010436;28;20465;-51
2022/12/07 01:08:19;;;;;;;1.83;1.00;;;19.90;37.60;;;;;;5011458;28;20349;-50
2022/12/07 01:10:45;;;;;;;2.42;0.90;;;19.90;37.60;;;;;;5020571;28;20059;-52
2022/12/07 01:13:11;;;;;;;2.35;1.10;;;19.90;37.60;;;;;;5051146;28;20044;-52
2022/12/07 01:15:42;;;;;;;2.58;1.17;;;19.90;37.60;;;;;;5049362;28;20498;-52
2022/12/07 01:18:08;;;;;;;2.08;0.93;;;19.90;37.50;;;;;;5049090;28;20040;-54
2022/12/07 01:20:34;;;;;;;1.85;0.93;;;19.90;37.50;;;;;;5050886;28;20033;-55
2022/12/07 01:23:00;;;;;;;2.40;1.00;;;19.90;37.50;;;;;;5034536;28;20444;-56
2022/12/07 01:25:26;;;;;;;2.25;0.90;;;19.90;37.50;;;;;;5049843;28;20052;-56
2022/12/07 01:27:52;;;;;;;1.70;0.90;;;19.90;37.50;;;;;;5051132;28;20025;-55
2022/12/07 01:30:17;;;;;;;1.50;0.95;;;19.90;37.50;;;;;;5051152;28;20029;-56
2022/12/07 01:32:43;;;;;;;1.65;0.90;;;19.90;37.50;;;;;;5049888;28;20029;-52
2022/12/07 01:35:09;;;;;;;1.70;0.80;;;19.90;37.50;;;;;;5052421;28;20032;-58
2022/12/07 01:37:36;;;;;;;1.73;1.00;;;19.90;37.50;;;;;;5051432;28;20029;-57
2022/12/07 01:40:03;;;;;;;3.42;1.42;;;19.80;37.40;;;;;;5050114;28;20048;-57
2022/12/07 01:42:29;;;;;;;1.58;0.90;;;19.80;37.40;;;;;;5050796;28;20456;-53
2022/12/07 01:45:32;;;;;;;1.77;0.88;;;19.80;37.40;;;;;;5048293;28;20032;-58
2022/12/07 01:47:59;;;;;;;2.33;1.00;;;19.80;37.30;;;;;;5049800;28;20052;-51
2022/12/07 01:50:27;;;;;;;2.20;1.10;;;19.80;37.30;;;;;;5050567;28;20053;-54
2022/12/07 01:52:56;;;;;;;1.83;0.80;;;19.80;37.30;;;;;;5049966;28;20029;-55
2022/12/07 01:55:22;;;;;;;1.55;0.80;;;19.80;37.30;;;;;;5049531;28;20041;-49
2022/12/07 01:57:51;;;;;;;2.17;0.80;;;19.80;37.30;;;;;;5052203;28;20029;-54
2022/12/07 02:00:18;;;;;;;2.08;1.00;;;19.80;37.30;;;;;;5052901;28;20044;-54
2022/12/07 02:03:00;;;;;;;2.03;0.90;;;19.80;37.30;;;;;;5050625;28;20036;-56
2022/12/07 02:05:27;;;;;;;1.77;0.90;;;19.80;37.30;;;;;;5051470;28;20037;-52
2022/12/07 02:07:56;;;;;;;3.58;1.17;;;19.80;37.30;;;;;;5055047;28;20431;-52
2022/12/07 02:10:28;;;;;;;1.67;0.77;;;19.80;37.30;;;;;;5056766;28;20025;-51
2022/12/07 02:13:15;;;;;;;1.92;1.00;;;19.80;37.30;;;;;;5016397;28;20507;-53
2022/12/07 02:15:59;;;;;;;1.33;0.70;;;19.70;37.30;;;;;;5016882;28;20041;-50
2022/12/07 02:18:43;;;;;;;2.08;1.13;;;19.70;37.20;;;;;;5016439;28;20109;-52
2022/12/07 02:21:39;;;;;;;2.45;0.80;;;19.70;37.30;;;;;;5014206;28;20108;-55
2022/12/07 02:24:42;;;;;;;1.63;0.90;;;19.70;37.20;;;;;;4999023;28;20030;-54
2022/12/07 02:27:20;;;;;;;2.30;1.00;;;19.70;37.20;;;;;;4997072;28;20038;-52
2022/12/07 02:30:10;;;;;;;1.40;0.85;;;19.70;37.20;;;;;;4996717;28;20034;-52
2022/12/07 02:32:59;;;;;;;2.47;0.90;;;19.70;37.30;;;;;;4997246;28;20141;-55
2022/12/07 02:35:47;;;;;;;2.03;0.90;;;19.70;37.20;;;;;;4997075;28;20050;-53
2022/12/07 02:38:31;;;;;;;2.15;0.98;;;19.70;37.20;;;;;;4997819;28;20041;-53
2022/12/07 02:41:04;;;;;;;2.05;0.70;;;19.70;37.20;;;;;;5009193;28;20477;-51
2022/12/07 02:44:01;;;;;;;1.80;1.00;;;19.70;37.20;;;;;;5013093;28;20037;-54
2022/12/07 02:46:38;;;;;;;2.33;0.93;;;19.70;37.20;;;;;;4988059;28;20391;-54
2022/12/07 02:49:23;;;;;;;1.80;0.90;;;19.60;37.20;;;;;;5011423;28;20030;-55
2022/12/07 02:52:01;;;;;;;1.40;0.80;;;19.70;37.20;;;;;;5009805;28;20091;-55
2022/12/07 02:54:27;;;;;;;2.67;0.73;;;19.60;37.10;;;;;;5014629;28;20120;-54
2022/12/07 02:57:13;;;;;;;3.08;1.00;;;19.70;37.20;;;;;;5011626;28;20026;-50
2022/12/07 02:59:56;;;;;;;3.08;1.23;;;19.60;37.10;;;;;;4998206;28;20469;-52
2022/12/07 03:03:04;;;;;;;1.83;0.80;;;19.60;37.10;;;;;;5009325;28;20122;-50
2022/12/07 03:05:39;;;;;;;2.25;1.10;;;19.60;37.10;;;;;;5011103;28;20030;-56
2022/12/07 03:08:13;;;;;;;1.10;0.80;;;19.70;37.20;;;;;;5008146;28;20480;-51
2022/12/07 03:10:57;;;;;;;2.60;0.70;;;19.60;37.20;;;;;;5012105;28;20034;-49
2022/12/07 03:13:47;;;;;;;2.63;0.90;;;19.60;37.20;;;;;;5047961;28;20037;-52
2022/12/07 03:16:18;;;;;;;1.48;0.77;;;19.60;37.20;;;;;;5046176;28;20511;-53
2022/12/07 03:18:55;;;;;;;2.47;1.02;;;19.60;37.20;;;;;;5045967;28;20033;-56
2022/12/07 03:21:29;;;;;;;2.42;0.88;;;19.60;37.20;;;;;;5047124;28;20037;-53
2022/12/07 03:23:58;;;;;;;1.52;0.77;;;19.60;37.20;;;;;;5046944;28;20033;-54
2022/12/07 03:26:31;;;;;;;1.67;0.70;;;19.60;37.10;;;;;;5047433;28;20029;-56
2022/12/07 03:29:04;;;;;;;1.98;0.88;;;19.50;37.10;;;;;;5048422;28;20554;-52
2022/12/07 03:31:36;;;;;;;2.67;1.02;;;19.60;37.10;;;;;;5046872;28;20025;-51
2022/12/07 03:34:17;;;;;;;2.03;0.63;;;19.60;37.10;;;;;;5048130;28;20341;-51
2022/12/07 03:36:52;;;;;;;2.22;0.90;;;19.50;37.00;;;;;;5049524;28;20099;-50
2022/12/07 03:40:09;;;;;;;1.10;0.63;;;19.50;37.00;;;;;;5047841;28;20017;-50
2022/12/07 03:42:35;;;;;;;2.22;0.90;;;19.50;37.00;;;;;;5007125;28;20136;-55
2022/12/07 03:45:03;;;;;;;2.13;0.90;;;19.60;37.10;;;;;;5047584;28;20036;-48
2022/12/07 03:47:52;;;;;;;2.00;0.90;;;19.50;37.00;;;;;;5049347;28;20035;-53
2022/12/07 03:50:56;;;;;;;2.67;0.80;;;19.50;37.00;;;;;;5021948;28;20472;-55
2022/12/07 03:53:34;;;;;;;1.35;0.68;;;19.50;37.00;;;;;;4949855;28;20027;-54
2022/12/07 03:56:01;;;;;;;2.05;0.73;;;19.50;37.00;;;;;;5037299;28;20098;-53
2022/12/07 03:58:29;;;;;;;1.58;0.85;;;19.50;37.00;;;;;;5047369;28;20057;-51
2022/12/07 04:00:55;;;;;;;2.05;0.80;;;19.50;37.10;;;;;;5050137;28;20108;-53
2022/12/07 04:03:21;;;;;;;1.55;0.85;;;19.50;37.20;;;;;;5045825;28;20025;-51
2022/12/07 04:05:47;;;;;;;1.45;0.68;;;19.50;37.20;;;;;;5046705;28;20041;-51
2022/12/07 04:08:13;;;;;;;1.58;0.77;;;19.50;37.20;;;;;;5050176;28;20104;-53
2022/12/07 04:10:39;;;;;;;3.00;0.80;;;19.50;37.20;;;;;;5058977;28;20347;-51
2022/12/07 04:13:05;;;;;;;3.20;0.90;;;19.50;37.20;;;;;;5044452;28;20391;-49
2022/12/07 04:15:31;;;;;;;3.05;0.70;;;19.50;37.20;;;;;;5038986;28;20452;-53
2022/12/07 04:17:56;;;;;;;2.78;0.95;;;19.50;37.20;;;;;;5045964;28;20037;-55
2022/12/07 04:20:22;;;;;;;1.35;0.52;;;19.50;37.20;;;;;;5057481;28;20458;-55
2022/12/07 04:22:48;;;;;;;1.40;0.63;;;19.50;37.20;;;;;;5047009;28;20026;-55
2022/12/07 04:25:14;;;;;;;1.60;0.68;;;19.50;37.10;;;;;;5039117;28;20076;-54
2022/12/07 04:27:40;;;;;;;2.00;0.82;;;19.50;37.10;;;;;;5058706;28;20021;-52
2022/12/07 04:30:06;;;;;;;3.10;1.05;;;19.50;37.10;;;;;;5058569;28;20471;-54
2022/12/07 04:32:32;;;;;;;2.53;0.70;;;19.50;37.10;;;;;;5051616;28;20032;-54
2022/12/07 04:34:58;;;;;;;1.45;0.60;;;19.50;37.10;;;;;;5058606;28;20355;-53
2022/12/07 04:37:24;;;;;;;1.00;0.55;;;19.50;37.10;;;;;;5053266;28;20036;-54
2022/12/07 04:39:50;;;;;;;1.40;0.77;;;19.50;37.00;;;;;;5050281;28;20063;-54
2022/12/07 04:42:16;;;;;;;2.30;0.55;;;19.40;37.00;;;;;;5051700;28;20391;-58
2022/12/07 04:44:42;;;;;;;1.20;0.60;;;19.40;37.00;;;;;;5052160;28;20460;-53
2022/12/07 04:47:08;;;;;;;1.17;0.50;;;19.40;37.00;;;;;;5051843;28;20156;-53
2022/12/07 04:49:33;;;;;;;1.75;0.60;;;19.40;37.00;;;;;;5051093;28;20086;-51
2022/12/07 04:51:59;;;;;;;1.88;0.60;;;19.40;37.00;;;;;;5052282;28;20055;-56
2022/12/07 04:54:25;;;;;;;1.90;0.52;;;19.40;37.00;;;;;;5051859;28;20036;-55
2022/12/07 04:56:51;;;;;;;1.63;0.45;;;19.40;37.00;;;;;;5051805;28;20064;-55
2022/12/07 04:59:17;;;;;;;1.85;0.50;;;19.40;37.00;;;;;;5053423;28;20028;-54
2022/12/07 05:01:43;;;;;;;1.73;0.70;;;19.40;37.00;;;;;;5053817;28;20021;-50
2022/12/07 05:04:09;;;;;;;1.58;0.60;;;19.40;37.00;;;;;;5049545;28;20036;-51
2022/12/07 05:06:35;;;;;;;1.10;0.50;;;19.40;37.00;;;;;;5052105;28;20468;-54
2022/12/07 05:09:02;;;;;;;1.90;0.65;;;19.40;37.00;;;;;;5033121;28;20037;-55
2022/12/07 05:11:40;;;;;;;1.42;0.60;;;19.40;37.00;;;;;;5050404;28;20080;-56
2022/12/07 05:14:19;;;;;;;1.83;0.52;;;19.40;37.00;;;;;;5050514;28;20025;-57
2022/12/07 05:16:47;;;;;;;1.67;0.65;;;19.40;37.00;;;;;;5050407;28;20044;-50
2022/12/07 05:19:13;;;;;;;2.95;0.60;;;19.40;37.00;;;;;;5048697;28;20227;-56
2022/12/07 05:21:39;;;;;;;1.73;0.80;;;19.40;37.10;;;;;;5050800;28;20104;-54
2022/12/07 05:24:06;;;;;;;3.15;0.60;;;19.40;37.00;;;;;;5051892;28;20056;-52
2022/12/07 05:26:32;;;;;;;1.63;0.70;;;19.40;36.90;;;;;;5035087;28;20525;-54
2022/12/07 05:28:58;;;;;;;2.13;0.60;;;19.30;37.00;;;;;;5029427;28;20337;-50
2022/12/07 05:31:25;;;;;;;1.25;0.50;;;19.30;36.90;;;;;;5050322;28;20029;-52
2022/12/07 05:33:51;;;;;;;1.85;0.73;;;19.40;36.90;;;;;;5051137;28;20025;-52
2022/12/07 05:36:17;;;;;;;2.28;0.50;;;19.40;36.90;;;;;;5051029;28;20040;-50
2022/12/07 05:38:43;;;;;;;2.53;0.70;;;19.30;36.90;;;;;;5052880;28;20099;-49
2022/12/07 05:42:11;;;;;;;1.55;0.75;;;19.30;36.90;;;;;;5049891;28;20036;-50
2022/12/07 05:43:59;;;;;;;1.77;0.70;;;19.30;36.90;;;;;;5052050;28;20552;-51
2022/12/07 05:46:26;;;;;;;1.60;0.63;;;19.30;36.90;;;;;;5051138;28;20498;-54
2022/12/07 05:48:52;;;;;;;1.33;0.68;;;19.30;36.90;;;;;;5033371;28;20108;-53
2022/12/07 05:51:19;;;;;;;1.85;0.70;;;19.30;36.80;;;;;;5048873;28;20064;-47
2022/12/07 05:53:45;;;;;;;0.95;0.50;;;19.30;36.90;;;;;;5049586;28;20960;-52
2022/12/07 05:56:11;;;;;;;1.77;0.60;;;19.30;36.80;;;;;;5049387;28;20048;-49
2022/12/07 06:01:22;;;;;;;1.38;0.55;;;19.30;36.90;;;;;;5051641;28;20021;-51
2022/12/07 06:03:48;;;;;;;1.92;0.90;;;19.30;36.80;;;;;;5051238;28;20024;-54
2022/12/07 06:06:14;;;;;;;2.70;0.70;;;19.30;36.80;;;;;;5056809;28;20040;-52
2022/12/07 06:08:40;;;;;;;0.90;0.55;;;19.30;36.80;;;;;;5055801;28;20356;-51
2022/12/07 06:13:50;;;;;;;0.88;0.57;;;19.30;36.90;;;;;;5039071;28;20037;-50
2022/12/07 06:16:16;;;;;;;1.58;0.70;;;19.30;36.90;;;;;;5056700;28;20459;-54
2022/12/07 06:18:41;;;;;;;1.70;0.63;;;19.30;36.90;;;;;;5055672;28;20032;-52
2022/12/07 06:21:07;;;;;;;1.08;0.60;;;19.30;36.90;;;;;;5055283;28;20043;-53
2022/12/07 06:23:33;;;;;;;2.47;0.85;;;19.30;36.90;;;;;;5056569;28;20029;-54
2022/12/07 06:25:59;;;;;;;2.33;0.60;;;19.30;36.90;;;;;;5056000;28;20408;-51
2022/12/07 06:28:25;;;;;;;2.38;0.60;;;19.30;36.90;;;;;;5055518;28;20033;-55
2022/12/07 06:31:01;;;;;;;2.08;0.60;;;19.20;36.80;;;;;;5056831;28;20064;-56
2022/12/07 06:33:28;;;;;;;1.60;0.75;;;19.30;36.80;;;;;;5053330;28;20483;-55
2022/12/07 06:35:54;;;;;;;1.80;0.80;;;19.30;36.80;;;;;;5055131;28;20037;-49
2022/12/07 06:38:20;;;;;;;1.30;0.50;;;19.30;36.80;;;;;;5054591;28;20054;-51
2022/12/07 06:40:46;;;;;;;1.92;0.90;;;19.20;36.80;;;;;;5051995;28;20025;-55
2022/12/07 06:43:12;;;;;;;1.90;0.52;;;19.20;36.80;;;;;;5051981;28;20474;-52
2022/12/07 06:45:38;;;;;;;2.92;0.80;;;19.20;36.70;;;;;;5048919;28;20519;-56
2022/12/07 06:48:04;;;;;;;1.85;0.80;;;19.20;36.70;;;;;;5053671;28;20112;-53
2022/12/07 06:50:30;;;;;;;2.05;0.70;;;19.20;36.70;;;;;;5046579;28;20029;-57
2022/12/07 06:52:56;;;;;;;1.50;0.60;;;19.20;36.70;;;;;;5053751;28;20024;-52
2022/12/07 06:55:21;;;;;;;1.75;0.70;;;19.20;36.70;;;;;;5043991;28;20056;-53
2022/12/07 06:57:47;;;;;;;1.92;0.50;;;19.20;36.70;;;;;;5051290;28;20111;-55
2022/12/07 07:00:14;;;;;;;1.13;0.50;;;19.20;36.70;;;;;;5051450;28;20104;-53
2022/12/07 07:02:40;;;;;;;1.73;0.50;;;19.20;36.80;;;;;;5046561;28;20033;-52
2022/12/07 07:05:06;;;;;;;1.92;0.70;;;19.20;36.80;;;;;;5049596;28;20033;-54
2022/12/07 07:07:32;;;;;;;1.67;0.70;;;19.20;36.70;;;;;;5047571;28;20352;-54
2022/12/07 07:09:57;;;;;;;1.52;0.57;;;19.20;36.70;;;;;;5047618;28;20060;-56
2022/12/07 07:12:23;;;;;;;1.75;0.70;;;19.20;36.70;;;;;;5050048;28;20056;-52
2022/12/07 07:14:49;;;;;;;1.55;0.50;;;19.20;36.70;;;;;;5047952;28;20487;-55
2022/12/07 07:17:15;;;;;;;1.60;0.70;;;19.20;36.70;;;;;;5045039;28;20025;-54
2022/12/07 07:19:42;;;;;;;1.88;0.60;;;19.20;36.70;;;;;;5048566;28;20060;-54
2022/12/07 07:22:08;;;;;;;2.40;0.65;;;19.20;36.70;;;;;;5045981;28;20033;-55
2022/12/07 07:24:33;;;;;;;1.75;0.70;;;19.20;36.70;;;;;;5053711;28;20067;-55
2022/12/07 07:26:59;;;;;;;1.95;0.60;;;19.20;36.60;;;;;;5052617;28;20451;-56
2022/12/07 07:29:25;;;;;;;2.35;0.70;;;19.20;36.60;;;;;;5050231;28;20314;-51
2022/12/07 07:31:51;;;;;;;1.80;0.70;;;19.10;36.60;;;;;;5048962;28;20046;-54
2022/12/07 07:34:17;;;;;;;3.17;0.52;;;19.20;36.60;;;;;;5049315;28;20440;-49
2022/12/07 07:36:43;;;;;;;2.65;0.70;;;19.20;36.60;;;;;;5050708;28;20069;-54
2022/12/07 07:39:10;;;;;;;2.03;0.65;;;19.10;36.50;;;;;;5048415;28;20045;-49
2022/12/07 07:41:35;;;;;;;2.85;0.70;;;19.20;36.50;;;;;;5047484;28;20060;-50
2022/12/07 07:44:02;;;;;;;2.83;0.88;;;19.20;36.50;;;;;;5024163;28;20017;-54
2022/12/07 07:46:28;;;;;;;9.30;0.70;;;19.10;36.50;;;;;;5051224;28;20086;-53
2022/12/07 07:48:54;;;;;;;2.55;0.90;;;19.10;36.50;;;;;;5047923;28;20025;-49
2022/12/07 07:51:20;;;;;;;2.03;0.60;;;19.10;36.50;;;;;;5048012;28;20064;-53
2022/12/07 07:53:46;;;;;;;1.15;0.40;;;19.10;36.50;;;;;;5052122;28;20041;-56
2022/12/07 07:56:12;;;;;;;1.92;0.70;;;19.10;36.60;;;;;;5045738;28;20044;-57
2022/12/07 07:58:39;;;;;;;1.85;0.55;;;19.20;36.70;;;;;;5048318;28;20454;-52
2022/12/07 08:01:08;;;;;;;2.00;0.70;;;19.20;36.80;;;;;;5047974;28;20502;-53
2022/12/07 08:03:34;;;;;;;3.63;0.68;;;19.20;36.70;;;;;;5047564;28;20060;-57
2022/12/07 08:06:02;;;;;;;1.33;0.55;;;19.20;36.70;;;;;;5046631;28;20032;-56
2022/12/07 08:08:28;;;;;;;1.73;0.70;;;19.30;36.70;;;;;;5047466;28;20045;-52
2022/12/07 08:10:54;;;;;;;3.20;0.90;;;19.30;36.70;;;;;;5048735;28;20491;-53
2022/12/07 08:13:20;;;;;;;2.13;0.52;;;19.40;36.70;;;;;;5050151;28;20083;-54
2022/12/07 08:15:47;;;;;;;2.90;0.60;;;19.40;36.60;;;;;;5051020;28;20037;-54
2022/12/07 08:18:15;;;;;;;2.20;0.60;;;19.50;36.60;;;;;;5054003;28;20075;-53
2022/12/07 08:20:41;;;;;;;2.25;0.60;;;19.50;36.50;;;;;;5053463;28;20052;-55
2022/12/07 08:23:08;;;;;;;1.58;0.65;;;19.60;36.50;;;;;;5036298;28;20036;-57
2022/12/07 08:25:35;;;;;;;1.42;0.50;;;19.70;36.50;;;;;;5052761;28;20021;-52
2022/12/07 08:28:01;;;;;;;1.55;0.60;;;19.80;36.40;;;;;;5053936;28;20025;-56
2022/12/07 08:30:28;;;;;;;0.93;0.40;;;19.80;36.30;;;;;;5054349;28;20487;-55
2022/12/07 08:32:54;;;;;;;2.42;0.77;;;19.90;36.30;;;;;;5041330;28;20038;-53
2022/12/07 08:35:20;;;;;;;3.08;0.80;;;20.00;36.20;;;;;;5051167;28;20041;-55
2022/12/07 08:37:46;;;;;;;1.52;0.60;;;20.00;36.20;;;;;;5049819;28;20459;-53
2022/12/07 08:40:15;;;;;;;1.90;0.85;;;20.10;36.10;;;;;;5047451;28;20028;-52
2022/12/07 08:42:51;;;;;;;2.05;0.70;;;20.10;36.00;;;;;;5048253;28;20039;-52
2022/12/07 08:45:19;;;;;;;1.67;0.70;;;20.20;35.90;;;;;;5049427;28;20056;-54
2022/12/07 08:47:58;;;;;;;2.33;0.70;;;20.20;35.90;;;;;;5049642;28;20100;-51
2022/12/07 08:50:24;;;;;;;1.90;0.40;;;20.30;35.80;;;;;;5046817;28;20072;-58
2022/12/07 08:52:56;;;;;;;1.33;0.70;;;20.30;35.80;;;;;;5047743;28;20024;-50
2022/12/07 08:55:23;;;;;;;2.03;0.90;;;20.40;35.80;;;;;;5053706;28;20357;-55
2022/12/07 08:57:49;;;;;;;1.98;0.70;;;20.50;35.80;;;;;;5055173;28;20035;-53
2022/12/07 09:00:19;;;;;;;2.45;0.65;;;20.50;35.70;;;;;;5048723;28;20501;-56
2022/12/07 09:02:46;;;;;;;2.50;0.60;;;20.60;35.70;;;;;;5052781;28;20025;-52
2022/12/07 09:05:14;;;;;;;1.75;0.70;;;20.60;35.60;;;;;;5052939;28;20048;-49
2022/12/07 09:07:43;;;;;;;1.05;0.40;;;20.70;35.50;;;;;;5049292;28;21011;-51
2022/12/07 09:10:09;;;;;;;1.73;0.57;;;20.70;35.40;;;;;;5032437;28;20089;-55
2022/12/07 09:12:35;;;;;;;2.88;0.70;;;20.70;35.40;;;;;;5050813;28;20134;-52
2022/12/07 09:15:01;;;;;;;1.20;0.50;;;20.80;35.30;;;;;;5050616;28;20090;-58
2022/12/07 09:17:27;;;;;;;2.22;0.80;;;20.80;35.30;;;;;;5047883;28;20030;-49
2022/12/07 09:19:53;;;;;;;3.67;0.70;;;20.90;35.40;;;;;;5057453;28;20033;-51
2022/12/07 09:22:19;;;;;;;1.33;0.98;;;20.90;35.30;;;;;;5057044;28;20025;-53
2022/12/07 09:24:45;;;;;;;4.25;0.82;;;20.90;35.30;;;;;;5049782;28;20037;-51
2022/12/07 09:27:11;;;;;;;3.28;0.60;;;21.00;35.20;;;;;;5046303;28;20025;-53
2022/12/07 09:29:37;;;;;;;2.33;0.60;;;21.00;35.20;;;;;;5045896;28;20037;-53
2022/12/07 09:32:03;;;;;;;1.30;0.70;;;21.00;35.10;;;;;;5047551;28;20036;-54
2022/12/07 09:34:31;;;;;;;1.88;0.70;;;21.10;35.10;;;;;;5043960;28;20040;-53
2022/12/07 09:36:58;;;;;;;1.75;0.73;;;21.10;35.10;;;;;;5045449;28;20043;-55
2022/12/07 09:39:23;;;;;;;4.63;0.88;;;21.10;35.00;;;;;;5044337;28;20033;-51
2022/12/07 09:41:49;;;;;;;1.88;0.60;;;21.20;35.00;;;;;;5046623;28;20028;-56
2022/12/07 09:44:23;;;;;;;3.55;0.68;;;21.20;35.00;;;;;;5047616;28;20069;-54
2022/12/07 09:46:50;;;;;;;2.03;0.82;;;21.20;35.60;;;;;;5037576;28;20029;-52
2022/12/07 09:49:22;;;;;;;2.15;0.77;;;21.10;34.90;;;;;;5039296;28;20022;-54
2022/12/07 09:52:00;;;;;;;1.25;0.57;;;21.20;34.90;;;;;;5056243;28;20025;-53
2022/12/07 09:54:25;;;;;;;2.47;0.73;;;21.20;34.90;;;;;;5057026;28;20086;-46
2022/12/07 09:56:52;;;;;;;1.92;0.80;;;21.20;34.90;;;;;;5052140;28;20041;-54
2022/12/07 09:59:18;;;;;;;1.58;0.70;;;21.20;34.90;;;;;;5045994;28;20071;-50
2022/12/07 10:01:49;;;;;;;1.38;0.77;;;21.20;34.90;;;;;;5057179;28;20459;-48
2022/12/07 10:04:24;;;;;;;2.30;0.88;;;21.20;34.90;;;;;;5042532;28;20130;-52
2022/12/07 10:06:51;;;;;;;1.33;0.60;;;21.20;34.80;;;;;;5056713;28;20037;-48
2022/12/07 10:09:20;;;;;;;1.83;0.60;;;21.20;34.80;;;;;;5055550;28;20033;-49
2022/12/07 10:12:08;;;;;;;1.58;0.70;;;21.20;34.80;;;;;;5056824;28;20060;-49
2022/12/07 10:14:37;;;;;;;2.00;0.63;;;21.20;34.80;;;;;;5057100;28;20041;-50
2022/12/07 10:17:22;;;;;;;2.40;0.65;;;21.20;34.90;;;;;;5056058;28;20048;-54
2022/12/07 10:19:48;;;;;;;2.10;0.60;;;21.10;34.80;;;;;;5045239;28;20032;-51
2022/12/07 10:22:17;;;;;;;2.30;0.60;;;21.10;34.80;;;;;;5050595;28;20030;-53
2022/12/07 10:24:46;;;;;;;2.90;0.90;;;21.10;34.80;;;;;;5036671;28;20044;-51
2022/12/07 10:27:29;;;;;;;2.53;0.80;;;21.20;34.90;;;;;;5036309;28;20037;-49
2022/12/07 10:29:58;;;;;;;2.72;0.88;;;21.20;34.90;;;;;;5026442;28;20126;-56
2022/12/07 10:32:35;;;;;;;3.85;0.80;;;21.10;34.90;;;;;;5053037;28;20033;-57
2022/12/07 10:35:28;;;;;;;3.83;1.00;;;21.10;35.00;;;;;;5055241;28;20041;-56
2022/12/07 10:37:57;;;;;;;1.67;0.75;;;21.10;35.10;;;;;;5042604;28;20118;-53
2022/12/07 10:40:27;;;;;;;3.28;1.35;;;21.10;35.10;;;;;;5040686;28;20026;-51
2022/12/07 10:43:15;;;;;;;1.75;0.95;;;21.10;35.20;;;;;;5039055;28;20035;-53
2022/12/07 10:46:16;;;;;;;2.00;0.80;;;21.10;35.20;;;;;;5040913;28;20025;-52
2022/12/07 10:49:13;;;;;;;2.03;0.80;;;21.10;35.20;;;;;;5017917;28;20103;-53
2022/12/07 10:52:09;;;;;;;1.80;0.82;;;21.10;35.20;;;;;;4965078;28;20047;-51
2022/12/07 10:54:54;;;;;;;2.17;0.68;;;21.00;35.20;;;;;;5036371;28;20452;-49
2022/12/07 10:57:44;;;;;;;1.45;0.60;;;21.00;35.20;;;;;;5035735;28;20391;-52
2022/12/07 11:00:22;;;;;;;1.80;0.50;;;21.00;35.20;;;;;;5053247;28;20514;-55
2022/12/07 11:02:56;;;;;;;2.83;0.57;;;21.00;35.20;;;;;;5051844;28;20032;-54
2022/12/07 11:05:48;;;;;;;1.35;0.68;;;21.00;35.20;;;;;;5053920;28;20040;-55
2022/12/07 11:08:14;;;;;;;1.50;0.65;;;21.00;35.20;;;;;;5054170;28;20086;-55
2022/12/07 11:11:09;;;;;;;1.50;0.60;;;20.90;35.10;;;;;;5046411;28;20037;-55
2022/12/07 11:13:48;;;;;;;1.55;0.60;;;20.90;35.10;;;;;;5052498;28;20494;-55
2022/12/07 11:16:35;;;;;;;2.60;0.82;;;21.00;35.10;;;;;;5053443;28;20032;-57
2022/12/07 11:19:14;;;;;;;1.33;0.47;;;21.00;35.10;;;;;;5054788;28;20460;-55
2022/12/07 11:22:00;;;;;;;2.63;0.88;;;20.90;35.30;;;;;;5051341;28;20035;-55
2022/12/07 11:25:00;;;;;;;1.88;0.65;;;20.90;35.80;;;;;;5046473;28;20024;-55
2022/12/07 11:27:51;;;;;;;2.00;0.77;;;21.00;36.00;;;;;;5055511;28;20029;-57
2022/12/07 11:30:22;;;;;;;2.72;0.88;;;20.90;36.00;;;;;;5055171;28;20036;-55
2022/12/07 11:33:08;;;;;;;2.25;0.80;;;20.90;35.90;;;;;;5049103;28;20087;-53
2022/12/07 11:35:56;;;;;;;1.02;0.40;;;20.90;35.90;;;;;;5053250;28;20090;-54
2022/12/07 11:38:59;;;;;;;1.80;0.90;;;20.90;35.80;;;;;;5034110;28;20456;-57
2022/12/07 11:41:36;;;;;;;3.40;0.85;;;20.90;35.70;;;;;;4974898;28;20464;-53
2022/12/07 11:44:18;;;;;;;2.15;0.75;;;20.90;35.70;;;;;;5035429;28;20065;-52
2022/12/07 11:47:16;;;;;;;2.08;0.60;;;20.90;35.60;;;;;;5050685;28;20063;-54
2022/12/07 11:49:51;;;;;;;3.25;0.80;;;20.90;35.60;;;;;;5046328;28;20033;-54
2022/12/07 11:52:32;;;;;;;1.08;0.50;;;20.80;35.40;;;;;;5045218;28;20449;-54
2022/12/07 11:54:59;;;;;;;1.75;0.85;;;20.80;35.40;;;;;;5034302;28;20052;-55
2022/12/07 11:57:37;;;;;;;3.72;0.98;;;20.80;35.40;;;;;;5042816;28;20068;-57
2022/12/07 12:00:12;;;;;;;4.32;0.90;;;20.80;35.40;;;;;;5043469;28;20079;-52
2022/12/07 12:03:03;;;;;;;1.98;0.70;;;20.80;35.60;;;;;;5050981;28;20029;-53
2022/12/07 12:05:29;;;;;;;2.47;0.90;;;20.80;35.60;;;;;;5048834;28;20123;-57
2022/12/07 12:08:15;;;;;;;2.22;0.77;;;20.80;35.60;;;;;;5053106;28;20056;-57
2022/12/07 12:10:53;;;;;;;4.32;1.25;;;20.80;35.60;;;;;;5038077;28;20033;-54
2022/12/07 12:13:50;;;;;;;2.03;0.70;;;20.80;35.60;;;;;;5036377;28;20043;-58
2022/12/07 12:16:44;;;;;;;1.90;0.95;;;20.80;35.60;;;;;;5049332;28;20468;-54
2022/12/07 12:19:23;;;;;;;3.10;0.82;;;20.80;35.50;;;;;;5050651;28;20021;-55
2022/12/07 12:21:53;;;;;;;1.92;0.68;;;20.80;35.50;;;;;;5051615;28;20238;-52
2022/12/07 12:24:24;;;;;;;2.30;0.90;;;20.80;35.50;;;;;;5048625;28;20025;-55
2022/12/07 12:26:54;;;;;;;2.45;0.80;;;20.80;35.40;;;;;;5052596;28;20033;-58
2022/12/07 12:29:33;;;;;;;2.92;0.70;;;20.70;35.40;;;;;;5050759;28;20118;-53
2022/12/07 12:32:18;;;;;;;1.13;0.65;;;20.80;35.40;;;;;;5056764;28;20060;-57
2022/12/07 12:34:47;;;;;;;3.28;0.80;;;20.80;35.40;;;;;;5053651;28;20037;-57
2022/12/07 12:37:34;;;;;;;1.65;0.80;;;20.70;35.30;;;;;;5049891;28;20051;-52
2022/12/07 12:40:20;;;;;;;2.15;0.80;;;20.70;35.30;;;;;;5056046;28;20055;-55
2022/12/07 12:42:53;;;;;;;4.03;1.00;;;20.70;35.50;;;;;;5058357;28;20028;-53
2022/12/07 12:45:26;;;;;;;3.10;0.90;;;20.70;35.50;;;;;;5039258;28;20038;-51
2022/12/07 12:47:54;;;;;;;3.47;0.77;;;20.80;35.60;;;;;;5045113;28;20406;-54
2022/12/07 12:50:24;;;;;;;4.95;0.80;;;20.70;35.60;;;;;;5051369;28;20063;-53
2022/12/07 12:53:03;;;;;;;2.50;0.75;;;20.70;35.60;;;;;;5057710;28;20371;-56
2022/12/07 12:55:41;;;;;;;4.65;1.40;;;20.70;36.20;;;;;;5032894;28;20036;-54
2022/12/07 12:58:19;;;;;;;2.47;0.80;;;20.70;35.60;;;;;;5055982;28;20051;-54
2022/12/07 13:01:26;;;;;;;2.88;0.77;;;20.70;35.60;;;;;;5056926;28;20025;-56
2022/12/07 13:03:54;;;;;;;3.22;1.02;;;20.70;35.60;;;;;;5051465;28;20063;-52
2022/12/07 13:06:38;;;;;;;3.22;1.10;;;20.70;35.60;;;;;;5026041;28;20383;-53
2022/12/07 13:09:22;;;;;;;2.35;0.90;;;20.70;36.00;;;;;;5056352;28;20408;-53
2022/12/07 13:12:11;;;;;;;3.50;1.08;;;20.70;36.70;;;;;;5057331;28;20052;-55
2022/12/07 13:15:00;;;;;;;3.95;1.08;;;20.70;37.00;;;;;;5038198;28;20033;-53
2022/12/07 13:17:33;;;;;;;3.97;0.95;;;20.70;37.10;;;;;;5046048;28;20086;-56
2022/12/07 13:20:07;;;;;;;3.10;1.00;;;20.80;37.20;;;;;;5057745;28;20020;-53